Time;durP1;ratioP1;P1;durP2;ratioP2;P2;SDS_P1;SDS_P2;PMS_P1;PMS_P2;Temp;Humidity;BMP_temperature;BMP_pressure;BME280_temperature;BME280_humidity;BME280_pressure;Samples;Min_cycle;Max_cycle;Signal;HPM_P1;HPM_P2
2021/06/01 00:01:11;;;;;;;2.65;1.88;;;23.80;40.90;;;;;;5088526;28;20048;-62
2021/06/01 00:03:38;;;;;;;2.78;1.45;;;23.80;40.90;;;;;;5088623;28;20599;-62
2021/06/01 00:06:05;;;;;;;1.63;1.52;;;23.80;40.90;;;;;;5088107;28;20518;-62
2021/06/01 00:08:32;;;;;;;3.25;1.60;;;23.70;40.90;;;;;;5088302;28;20135;-62
2021/06/01 00:11:00;;;;;;;2.20;1.65;;;23.80;40.90;;;;;;5087668;28;20343;-62
2021/06/01 00:13:27;;;;;;;1.95;1.33;;;23.70;40.90;;;;;;5088125;28;20336;-62
2021/06/01 00:15:54;;;;;;;1.63;1.45;;;23.70;40.90;;;;;;5088709;28;20054;-62
2021/06/01 00:18:22;;;;;;;1.48;1.38;;;23.70;40.90;;;;;;5087695;28;20497;-62
2021/06/01 00:20:49;;;;;;;2.03;1.58;;;23.70;41.00;;;;;;5088409;28;20071;-62
2021/06/01 00:23:16;;;;;;;1.70;1.60;;;23.70;41.00;;;;;;5087082;28;20611;-62
2021/06/01 00:25:43;;;;;;;1.77;1.58;;;23.70;41.10;;;;;;5088118;28;20072;-62
2021/06/01 00:28:15;;;;;;;1.90;1.70;;;23.70;41.10;;;;;;5087092;28;20045;-62
2021/06/01 00:30:42;;;;;;;1.75;1.65;;;23.70;41.10;;;;;;5087575;28;20068;-62
2021/06/01 00:33:10;;;;;;;2.22;1.63;;;23.70;41.10;;;;;;5088011;28;20125;-62
2021/06/01 00:35:38;;;;;;;2.03;1.83;;;23.70;41.10;;;;;;5087146;28;20131;-62
2021/06/01 00:38:06;;;;;;;2.53;1.70;;;23.60;41.10;;;;;;5087445;28;20131;-62
2021/06/01 00:40:34;;;;;;;1.58;1.23;;;23.60;41.10;;;;;;5087142;28;20134;-62
2021/06/01 00:43:01;;;;;;;1.83;1.60;;;23.60;41.10;;;;;;5088080;28;20071;-62
2021/06/01 00:45:28;;;;;;;1.60;1.48;;;23.60;41.20;;;;;;5087600;28;20089;-62
2021/06/01 00:47:55;;;;;;;1.50;1.40;;;23.60;41.20;;;;;;5087582;28;20485;-62
2021/06/01 00:50:25;;;;;;;1.50;1.40;;;23.60;41.20;;;;;;5086986;28;20486;-62
2021/06/01 00:52:53;;;;;;;1.45;1.38;;;23.60;41.20;;;;;;5087582;28;20044;-62
2021/06/01 00:55:21;;;;;;;1.58;1.48;;;23.60;41.30;;;;;;5085641;28;20142;-62
2021/06/01 00:57:48;;;;;;;1.55;1.45;;;23.50;41.20;;;;;;5087805;28;20128;-62
2021/06/01 01:00:37;;;;;;;1.70;1.45;;;23.50;41.30;;;;;;5086861;28;20144;-62
2021/06/01 01:03:05;;;;;;;1.83;1.73;;;23.50;41.30;;;;;;5086965;28;20048;-62
2021/06/01 01:05:36;;;;;;;1.98;1.77;;;23.50;41.30;;;;;;5086717;28;20080;-62
2021/06/01 01:08:32;;;;;;;3.13;2.33;;;23.50;41.30;;;;;;5087280;28;20136;-62
2021/06/01 01:11:30;;;;;;;3.55;1.50;;;23.50;41.30;;;;;;5086786;28;20127;-62
2021/06/01 01:14:03;;;;;;;1.60;1.50;;;23.50;41.30;;;;;;5087175;28;20600;-62
2021/06/01 01:16:32;;;;;;;1.63;1.45;;;23.50;41.30;;;;;;5086624;28;20048;-62
2021/06/01 01:19:06;;;;;;;2.35;1.20;;;23.50;41.30;;;;;;5087192;28;20074;-62
2021/06/01 01:21:43;;;;;;;1.40;1.20;;;23.50;41.30;;;;;;5086617;28;20075;-62
2021/06/01 01:24:45;;;;;;;3.08;1.63;;;23.50;41.60;;;;;;5086522;28;20583;-62
2021/06/01 01:27:41;;;;;;;1.45;1.10;;;23.50;41.40;;;;;;5085784;28;20078;-62
2021/06/01 01:30:12;;;;;;;2.30;1.80;;;23.50;41.40;;;;;;5086811;28;20440;-62
2021/06/01 01:32:58;;;;;;;1.63;1.30;;;23.40;42.00;;;;;;5086205;28;20199;-62
2021/06/01 01:35:28;;;;;;;1.50;1.10;;;23.40;41.50;;;;;;5084615;28;20143;-63
2021/06/01 01:37:58;;;;;;;;;;;23.40;41.50;;;;;;5086924;28;20127;-62
2021/06/01 01:40:26;;;;;;;;;;;23.40;41.60;;;;;;5086831;28;19926;-65
2021/06/01 01:43:01;;;;;;;1.30;1.00;;;23.30;41.60;;;;;;5086289;28;19963;-62
2021/06/01 01:45:32;;;;;;;1.85;1.40;;;23.40;41.70;;;;;;5086767;28;20453;-62
2021/06/01 01:51:11;;;;;;;1.30;1.20;;;23.30;41.70;;;;;;5086654;28;20051;-62
2021/06/01 01:53:43;;;;;;;1.60;1.23;;;23.30;41.80;;;;;;5086382;28;20059;-62
2021/06/01 01:56:10;;;;;;;1.27;1.17;;;23.20;41.70;;;;;;5086499;28;20181;-62
2021/06/01 01:58:38;;;;;;;1.35;1.25;;;23.30;41.80;;;;;;5086205;28;20070;-62
2021/06/01 02:01:05;;;;;;;1.73;1.60;;;23.30;41.80;;;;;;5085826;28;20052;-62
2021/06/01 02:03:34;;;;;;;2.75;1.77;;;23.30;41.80;;;;;;5085924;28;20512;-62
2021/06/01 02:06:02;;;;;;;1.40;1.30;;;23.30;41.70;;;;;;5085842;28;20048;-62
2021/06/01 02:08:29;;;;;;;1.52;1.42;;;23.30;41.70;;;;;;5086303;28;20496;-62
2021/06/01 02:10:56;;;;;;;1.33;1.30;;;23.30;41.60;;;;;;5085933;28;20477;-62
2021/06/01 02:13:27;;;;;;;1.63;1.15;;;23.40;41.70;;;;;;5085193;28;20048;-62
2021/06/01 02:15:55;;;;;;;1.30;1.20;;;23.30;41.70;;;;;;5086182;28;20079;-62
2021/06/01 02:18:23;;;;;;;1.27;1.17;;;23.30;42.30;;;;;;5085537;28;20044;-62
2021/06/01 02:20:54;;;;;;;1.45;1.23;;;23.30;41.80;;;;;;5085927;28;20048;-62
2021/06/01 02:23:48;;;;;;;1.50;1.40;;;23.20;41.70;;;;;;5085445;28;20690;-62
2021/06/01 02:26:38;;;;;;;1.20;1.10;;;23.20;41.80;;;;;;5086122;28;20075;-62
2021/06/01 02:29:21;;;;;;;1.30;1.30;;;23.20;41.90;;;;;;5085732;28;20078;-62
2021/06/01 02:31:51;;;;;;;1.58;1.48;;;23.20;41.90;;;;;;5085566;28;20075;-62
2021/06/01 02:34:20;;;;;;;6.90;2.27;;;23.20;41.90;;;;;;5085456;28;20040;-62
2021/06/01 02:36:51;;;;;;;1.40;1.30;;;23.20;41.90;;;;;;5084987;28;20086;-62
2021/06/01 02:39:21;;;;;;;1.45;1.35;;;23.20;41.90;;;;;;5085704;28;20143;-62
2021/06/01 02:41:50;;;;;;;1.60;1.50;;;23.10;41.90;;;;;;5085530;28;20070;-62
2021/06/01 02:44:18;;;;;;;1.33;1.23;;;23.10;41.90;;;;;;5085551;28;20048;-62
2021/06/01 02:46:46;;;;;;;1.30;1.20;;;23.10;41.90;;;;;;5085525;28;20091;-62
2021/06/01 02:49:17;;;;;;;1.23;1.15;;;23.10;41.90;;;;;;5084884;28;20052;-62
2021/06/01 02:51:44;;;;;;;1.30;1.20;;;23.20;42.00;;;;;;5084585;28;20044;-62
2021/06/01 02:54:12;;;;;;;1.88;1.58;;;23.20;41.90;;;;;;5084996;28;20147;-62
2021/06/01 02:56:39;;;;;;;1.88;1.23;;;23.20;41.90;;;;;;5085949;28;20520;-62
2021/06/01 02:59:08;;;;;;;2.00;1.80;;;23.20;41.90;;;;;;5084430;28;20477;-62
2021/06/01 03:01:35;;;;;;;2.22;1.58;;;23.20;41.80;;;;;;5085055;28;20519;-62
2021/06/01 03:04:06;;;;;;;1.40;1.30;;;23.20;41.80;;;;;;5084958;28;20438;-62
2021/06/01 03:06:34;;;;;;;1.30;1.25;;;23.20;41.90;;;;;;5085161;28;20043;-62
2021/06/01 03:09:03;;;;;;;1.48;1.38;;;23.20;41.90;;;;;;5085097;28;20556;-62
2021/06/01 03:11:32;;;;;;;1.65;1.50;;;23.20;41.90;;;;;;5085422;28;20234;-62
2021/06/01 03:13:59;;;;;;;1.23;1.00;;;23.20;41.90;;;;;;5084923;28;20052;-62
2021/06/01 03:16:27;;;;;;;1.60;1.50;;;23.10;41.90;;;;;;5085087;28;20110;-62
2021/06/01 03:18:54;;;;;;;1.40;1.30;;;23.10;41.90;;;;;;5084910;28;20044;-62
2021/06/01 03:21:21;;;;;;;1.30;1.20;;;23.10;41.90;;;;;;5085353;28;20354;-62
2021/06/01 03:23:48;;;;;;;1.45;1.23;;;23.10;41.90;;;;;;5083703;28;20474;-62
2021/06/01 03:26:17;;;;;;;1.70;1.38;;;23.10;41.90;;;;;;5084779;28;20086;-62
2021/06/01 03:28:44;;;;;;;2.03;1.20;;;23.10;41.90;;;;;;5084177;28;20135;-63
2021/06/01 03:31:11;;;;;;;1.33;1.23;;;23.10;41.90;;;;;;5084540;28;20052;-62
2021/06/01 03:33:39;;;;;;;1.33;1.20;;;23.10;41.90;;;;;;5084745;28;20048;-62
2021/06/01 03:36:07;;;;;;;1.83;1.50;;;23.20;41.90;;;;;;5083330;28;20247;-62
2021/06/01 03:38:36;;;;;;;1.75;1.42;;;23.20;41.80;;;;;;5083733;28;20147;-62
2021/06/01 03:41:05;;;;;;;1.13;1.08;;;23.20;41.70;;;;;;5084788;28;20044;-62
2021/06/01 03:43:32;;;;;;;1.90;1.30;;;23.30;41.60;;;;;;5084026;28;20044;-62
2021/06/01 03:45:59;;;;;;;1.17;1.05;;;23.30;41.50;;;;;;5085146;28;20092;-62
2021/06/01 03:48:26;;;;;;;1.30;1.20;;;23.40;41.50;;;;;;5084271;28;20040;-62
2021/06/01 03:50:54;;;;;;;1.85;1.23;;;23.40;41.50;;;;;;5085082;28;20449;-63
2021/06/01 03:53:21;;;;;;;1.13;1.00;;;23.40;41.40;;;;;;5084808;28;20431;-63
2021/06/01 03:55:48;;;;;;;1.25;1.15;;;23.40;41.40;;;;;;5083944;28;20409;-64
2021/06/01 03:58:16;;;;;;;1.70;1.27;;;23.40;41.30;;;;;;5084101;28;20131;-63
2021/06/01 04:00:43;;;;;;;1.10;1.00;;;23.50;41.30;;;;;;5083940;28;20131;-63
2021/06/01 04:03:10;;;;;;;1.40;1.30;;;23.50;41.30;;;;;;5084062;28;20071;-69
2021/06/01 04:05:37;;;;;;;1.80;1.30;;;23.50;41.20;;;;;;5087859;28;20079;-62
2021/06/01 04:08:07;;;;;;;1.15;1.10;;;23.50;41.10;;;;;;5087616;28;20040;-62
2021/06/01 04:10:35;;;;;;;1.30;1.20;;;23.50;41.10;;;;;;5088228;28;20083;-62
2021/06/01 04:13:02;;;;;;;0.98;0.95;;;23.60;41.10;;;;;;5088241;28;20052;-62
2021/06/01 04:15:29;;;;;;;0.80;0.80;;;23.60;41.10;;;;;;5086861;28;20083;-62
2021/06/01 04:17:56;;;;;;;1.80;1.33;;;23.60;41.10;;;;;;5088505;28;20127;-62
2021/06/01 04:20:25;;;;;;;1.15;1.05;;;23.60;41.00;;;;;;5087666;28;20125;-62
2021/06/01 04:22:52;;;;;;;1.20;1.10;;;23.60;41.00;;;;;;5088031;28;20101;-63
2021/06/01 04:25:19;;;;;;;1.25;1.15;;;23.60;41.00;;;;;;5087327;28;20659;-63
2021/06/01 04:27:47;;;;;;;1.50;1.25;;;23.60;40.90;;;;;;5087550;28;20358;-63
2021/06/01 04:30:14;;;;;;;1.63;1.10;;;23.60;40.80;;;;;;5087458;28;20119;-63
2021/06/01 04:32:41;;;;;;;1.48;1.38;;;23.70;40.80;;;;;;5087331;28;20127;-63
2021/06/01 04:35:09;;;;;;;0.90;0.90;;;23.70;40.70;;;;;;5085862;28;20071;-63
2021/06/01 04:37:37;;;;;;;1.35;1.27;;;23.70;40.60;;;;;;5086474;28;20054;-62
2021/06/01 04:40:04;;;;;;;1.20;1.20;;;23.70;40.60;;;;;;5087762;28;20068;-63
2021/06/01 04:42:32;;;;;;;3.05;1.02;;;23.70;40.60;;;;;;5085070;28;20126;-62
2021/06/01 04:44:59;;;;;;;1.80;1.35;;;23.80;40.60;;;;;;5087649;28;20131;-63
2021/06/01 04:47:26;;;;;;;0.90;0.90;;;23.80;40.60;;;;;;5089094;28;20087;-62
2021/06/01 04:49:53;;;;;;;1.15;1.05;;;23.80;40.50;;;;;;5086380;28;20124;-62
2021/06/01 04:52:20;;;;;;;1.02;0.90;;;23.80;40.50;;;;;;5086937;28;20139;-63
2021/06/01 04:54:47;;;;;;;1.00;1.00;;;23.80;40.50;;;;;;5085487;28;20209;-62
2021/06/01 04:57:15;;;;;;;1.55;1.20;;;23.90;40.40;;;;;;5078915;28;20045;-63
2021/06/01 04:59:43;;;;;;;1.55;1.13;;;23.90;40.40;;;;;;5086325;28;20139;-63
2021/06/01 05:02:10;;;;;;;1.15;1.05;;;23.90;40.40;;;;;;5086421;28;20055;-63
2021/06/01 05:04:37;;;;;;;1.10;1.00;;;23.90;40.30;;;;;;5086469;28;20040;-63
2021/06/01 05:07:05;;;;;;;1.00;1.00;;;23.90;40.20;;;;;;5085987;28;20075;-63
2021/06/01 05:09:32;;;;;;;1.05;1.05;;;23.90;40.00;;;;;;5085371;28;20101;-63
2021/06/01 05:11:59;;;;;;;1.20;1.10;;;23.90;40.00;;;;;;5086211;28;20520;-66
2021/06/01 05:14:26;;;;;;;1.25;1.15;;;24.00;40.00;;;;;;5085009;28;20094;-63
2021/06/01 05:16:53;;;;;;;1.08;0.98;;;24.00;40.00;;;;;;5084663;28;20048;-64
2021/06/01 05:19:21;;;;;;;1.10;1.10;;;24.00;40.00;;;;;;5068646;28;20058;-64
2021/06/01 05:21:48;;;;;;;1.95;1.00;;;24.10;40.30;;;;;;5080421;28;20076;-65
2021/06/01 05:24:15;;;;;;;1.17;1.17;;;24.10;40.30;;;;;;5050582;28;20482;-65
2021/06/01 05:26:43;;;;;;;1.30;1.20;;;24.10;40.20;;;;;;5058182;28;20161;-65
2021/06/01 05:29:10;;;;;;;4.00;1.48;;;24.10;40.00;;;;;;5058203;28;20068;-65
2021/06/01 05:31:49;;;;;;;1.48;1.23;;;24.10;40.10;;;;;;5060488;28;20049;-65
2021/06/01 05:34:19;;;;;;;1.63;1.52;;;24.10;40.00;;;;;;5059076;28;20041;-65
2021/06/01 05:36:47;;;;;;;6.35;1.55;;;24.20;39.90;;;;;;5060732;28;20083;-64
2021/06/01 05:39:15;;;;;;;1.65;1.25;;;24.20;40.40;;;;;;5062811;28;20079;-63
2021/06/01 05:41:42;;;;;;;1.85;1.42;;;24.20;39.80;;;;;;5058121;28;20075;-65
2021/06/01 05:44:09;;;;;;;2.10;1.55;;;24.30;39.70;;;;;;5060848;28;20036;-64
2021/06/01 05:46:36;;;;;;;3.28;2.08;;;24.30;39.50;;;;;;5060897;28;20330;-63
2021/06/01 05:49:04;;;;;;;6.05;2.40;;;24.30;39.30;;;;;;5057495;28;20044;-63
2021/06/01 05:51:35;;;;;;;3.00;1.90;;;24.30;39.20;;;;;;5060472;28;20430;-62
2021/06/01 05:54:04;;;;;;;5.22;3.00;;;24.30;39.10;;;;;;5061149;28;20036;-64
2021/06/01 05:56:32;;;;;;;3.67;2.80;;;24.30;39.30;;;;;;5054433;28;20128;-61
2021/06/01 05:58:59;;;;;;;2.75;2.55;;;24.20;39.70;;;;;;5064234;28;20140;-63
2021/06/01 06:01:27;;;;;;;3.10;2.80;;;24.10;40.00;;;;;;5050590;28;20074;-64
2021/06/01 06:03:54;;;;;;;2.95;2.75;;;24.00;40.10;;;;;;5055205;28;20415;-67
2021/06/01 06:06:22;;;;;;;4.75;2.00;;;23.90;40.40;;;;;;5057627;28;20080;-63
2021/06/01 06:08:49;;;;;;;2.65;2.10;;;23.80;40.60;;;;;;5062564;28;20155;-62
2021/06/01 06:11:16;;;;;;;3.50;2.47;;;23.80;40.90;;;;;;5054847;28;20083;-62
2021/06/01 06:13:43;;;;;;;4.88;2.58;;;23.90;40.80;;;;;;5055435;28;20080;-62
2021/06/01 06:16:17;;;;;;;5.93;3.28;;;23.90;40.70;;;;;;5057664;28;20147;-63
2021/06/01 06:18:55;;;;;;;2.90;2.65;;;23.90;40.80;;;;;;5057938;28;20131;-62
2021/06/01 06:21:23;;;;;;;4.25;3.08;;;24.00;40.80;;;;;;5059778;28;20167;-63
2021/06/01 06:23:51;;;;;;;2.50;2.28;;;24.00;40.90;;;;;;5044260;28;20074;-65
2021/06/01 06:26:18;;;;;;;3.58;2.90;;;24.00;41.00;;;;;;5058267;28;20464;-65
2021/06/01 06:28:45;;;;;;;3.42;2.42;;;24.00;40.70;;;;;;5059829;28;20040;-65
2021/06/01 06:31:13;;;;;;;2.63;2.17;;;24.00;40.80;;;;;;5059775;28;20494;-66
2021/06/01 06:33:40;;;;;;;4.32;2.65;;;24.00;40.70;;;;;;5058761;28;20052;-65
2021/06/01 06:36:08;;;;;;;4.18;2.92;;;24.00;40.70;;;;;;5059842;28;20083;-64
2021/06/01 06:38:35;;;;;;;3.47;2.10;;;24.00;40.50;;;;;;5061114;28;20504;-60
2021/06/01 06:41:12;;;;;;;3.50;2.78;;;24.00;40.70;;;;;;5057521;28;20095;-62
2021/06/01 06:43:53;;;;;;;4.45;2.63;;;23.90;40.80;;;;;;5060036;28;20049;-61
2021/06/01 06:46:26;;;;;;;6.15;3.63;;;23.90;40.60;;;;;;5060443;28;20471;-61
2021/06/01 06:48:53;;;;;;;5.97;2.83;;;23.90;40.80;;;;;;5057215;28;20155;-59
2021/06/01 06:51:22;;;;;;;2.60;2.40;;;24.00;40.30;;;;;;5061000;28;20127;-59
2021/06/01 06:53:51;;;;;;;5.68;2.75;;;24.00;39.80;;;;;;5060274;28;20080;-61
2021/06/01 06:56:24;;;;;;;2.60;2.30;;;24.00;39.60;;;;;;5058721;28;20507;-59
2021/06/01 06:58:53;;;;;;;3.17;2.20;;;24.00;39.40;;;;;;5056710;28;20471;-59
2021/06/01 07:01:20;;;;;;;2.20;2.00;;;24.00;39.40;;;;;;5058667;28;20413;-62
2021/06/01 07:03:48;;;;;;;4.40;2.20;;;24.10;39.00;;;;;;5056484;28;20047;-61
2021/06/01 07:06:16;;;;;;;10.48;3.38;;;24.10;39.00;;;;;;5059438;28;20111;-61
2021/06/01 07:08:44;;;;;;;5.03;2.22;;;24.10;39.10;;;;;;5059748;28;20053;-63
2021/06/01 07:11:12;;;;;;;3.47;2.35;;;24.10;39.20;;;;;;5058930;28;20086;-61
2021/06/01 07:14:06;;;;;;;3.17;2.47;;;24.10;39.00;;;;;;5059945;28;20056;-59
2021/06/01 07:16:34;;;;;;;4.25;2.30;;;24.10;37.40;;;;;;5056227;28;20119;-64
2021/06/01 07:19:01;;;;;;;3.17;2.10;;;24.10;37.60;;;;;;5055785;28;20509;-63
2021/06/01 07:21:28;;;;;;;11.95;2.58;;;24.20;37.90;;;;;;5058858;28;20127;-64
2021/06/01 07:23:55;;;;;;;3.85;2.00;;;24.20;38.40;;;;;;5032989;28;20050;-63
2021/06/01 07:26:23;;;;;;;5.05;2.58;;;24.20;38.10;;;;;;5053684;28;20045;-64
2021/06/01 07:28:50;;;;;;;2.10;1.95;;;24.30;37.90;;;;;;5057929;28;20044;-64
2021/06/01 07:31:18;;;;;;;2.95;1.98;;;24.30;36.70;;;;;;5052054;28;20040;-63
2021/06/01 07:33:46;;;;;;;2.72;1.77;;;24.30;36.80;;;;;;5059619;28;20080;-65
2021/06/01 07:36:13;;;;;;;2.47;1.80;;;24.30;37.00;;;;;;5060813;28;20056;-65
2021/06/01 07:38:40;;;;;;;2.00;1.75;;;24.30;36.80;;;;;;5063120;28;20058;-67
2021/06/01 07:41:08;;;;;;;3.05;2.20;;;24.30;37.10;;;;;;5063510;28;20398;-66
2021/06/01 07:43:35;;;;;;;2.03;1.83;;;24.30;35.70;;;;;;5064524;28;20519;-65
2021/06/01 07:46:03;;;;;;;2.90;1.55;;;24.30;35.60;;;;;;5061629;28;20051;-65
2021/06/01 07:48:37;;;;;;;2.13;1.58;;;24.30;36.10;;;;;;5060749;28;20044;-64
2021/06/01 07:51:10;;;;;;;2.15;1.67;;;24.30;35.40;;;;;;5060413;28;20062;-65
2021/06/01 07:53:39;;;;;;;2.50;1.63;;;24.40;35.10;;;;;;5062933;28;20051;-64
2021/06/01 07:56:08;;;;;;;1.75;1.55;;;24.30;34.90;;;;;;5062537;28;20394;-65
2021/06/01 07:58:35;;;;;;;2.85;1.90;;;24.30;35.20;;;;;;5064997;28;20470;-64
2021/06/01 08:01:02;;;;;;;2.92;1.65;;;24.30;35.90;;;;;;5054307;28;20555;-63
2021/06/01 08:03:29;;;;;;;5.20;1.88;;;24.40;36.30;;;;;;5063513;28;20489;-63
2021/06/01 08:05:57;;;;;;;5.95;1.77;;;24.40;35.40;;;;;;5062599;28;20087;-61
2021/06/01 08:08:24;;;;;;;3.38;1.65;;;24.40;35.00;;;;;;5059925;28;20179;-62
2021/06/01 08:10:52;;;;;;;5.30;1.55;;;24.50;34.90;;;;;;5063357;28;20110;-63
2021/06/01 08:13:19;;;;;;;2.30;1.75;;;24.50;34.60;;;;;;5060664;28;20155;-63
2021/06/01 08:15:50;;;;;;;2.83;1.75;;;24.50;35.40;;;;;;5060786;28;20489;-62
2021/06/01 08:18:20;;;;;;;7.53;2.28;;;24.50;35.70;;;;;;5060978;28;20086;-63
2021/06/01 08:21:08;;;;;;;2.67;1.88;;;24.50;35.50;;;;;;5058866;28;20140;-68
2021/06/01 08:23:35;;;;;;;5.15;1.60;;;24.60;33.90;;;;;;5059608;28;20076;-63
2021/06/01 08:26:03;;;;;;;2.13;1.90;;;24.60;34.40;;;;;;5042577;28;20143;-63
2021/06/01 08:28:33;;;;;;;2.47;1.60;;;24.60;34.30;;;;;;5062661;28;20449;-64
2021/06/01 08:31:01;;;;;;;2.88;1.63;;;24.60;33.50;;;;;;5060363;28;20056;-64
2021/06/01 08:33:29;;;;;;;5.00;2.25;;;24.60;34.10;;;;;;5061294;28;20547;-64
2021/06/01 08:35:58;;;;;;;5.00;1.70;;;24.70;33.40;;;;;;5062482;28;20135;-64
2021/06/01 08:38:25;;;;;;;3.33;1.80;;;24.60;32.90;;;;;;5061887;28;20079;-66
2021/06/01 08:40:52;;;;;;;3.15;1.50;;;24.60;32.70;;;;;;5063027;28;20040;-62
2021/06/01 08:43:24;;;;;;;1.83;1.55;;;24.60;32.70;;;;;;5063411;28;20135;-65
2021/06/01 08:45:56;;;;;;;2.10;1.77;;;24.60;32.90;;;;;;5061929;28;20040;-65
2021/06/01 08:48:24;;;;;;;2.30;1.63;;;24.70;33.30;;;;;;5064183;28;20070;-64
2021/06/01 08:50:54;;;;;;;2.35;1.60;;;24.80;33.60;;;;;;5060522;28;20143;-64
2021/06/01 08:53:21;;;;;;;3.28;1.88;;;24.90;33.80;;;;;;5062525;28;20087;-62
2021/06/01 08:55:49;;;;;;;2.65;1.90;;;25.00;33.80;;;;;;5063927;28;20468;-63
2021/06/01 08:58:19;;;;;;;2.80;1.95;;;25.10;33.80;;;;;;5062863;28;20058;-63
2021/06/01 09:00:47;;;;;;;3.53;1.75;;;25.20;33.70;;;;;;5061311;28;20448;-64
2021/06/01 09:03:22;;;;;;;3.17;1.88;;;25.30;33.70;;;;;;5061913;28;20824;-60
2021/06/01 09:09:15;;;;;;;2.10;1.17;;;25.40;33.70;;;;;;5061176;28;20500;-61
2021/06/01 09:23:07;;;;;;;8.93;1.70;;;25.60;32.30;;;;;;5059395;28;20235;-62
2021/06/01 09:25:41;;;;;;;2.22;1.65;;;25.50;31.80;;;;;;5041646;28;21502;-61
2021/06/01 09:28:10;;;;;;;4.03;1.70;;;25.50;32.10;;;;;;5060832;28;20048;-62
2021/06/01 09:30:44;;;;;;;1.65;1.52;;;25.50;32.50;;;;;;5059364;28;20060;-62
2021/06/01 09:33:32;;;;;;;6.30;2.00;;;25.50;32.70;;;;;;5059431;28;20079;-62
2021/06/01 09:36:04;;;;;;;4.65;1.73;;;25.60;32.90;;;;;;5060722;28;20055;-62
2021/06/01 09:38:43;;;;;;;1.67;1.35;;;25.60;33.00;;;;;;5061522;28;20168;-61
2021/06/01 09:41:16;;;;;;;3.03;1.95;;;25.60;33.10;;;;;;5049638;28;20182;-64
2021/06/01 09:43:58;;;;;;;2.55;1.60;;;25.60;33.30;;;;;;5058930;28;20048;-64
2021/06/01 09:46:35;;;;;;;2.67;1.90;;;25.60;33.40;;;;;;5062967;28;20121;-64
2021/06/01 09:49:22;;;;;;;2.58;2.15;;;25.60;33.30;;;;;;5057993;28;20620;-62
2021/06/01 09:51:56;;;;;;;4.28;2.10;;;25.70;33.40;;;;;;5058798;28;20131;-63
2021/06/01 09:54:38;;;;;;;10.20;2.20;;;25.70;33.40;;;;;;5064024;28;20587;-62
2021/06/01 09:57:25;;;;;;;5.32;1.88;;;25.80;33.50;;;;;;5058929;28;20576;-63
2021/06/01 10:00:17;;;;;;;15.35;2.83;;;25.90;33.60;;;;;;5059700;28;20139;-62
2021/06/01 10:02:47;;;;;;;3.67;2.13;;;25.90;33.50;;;;;;5060662;28;20048;-62
2021/06/01 10:05:31;;;;;;;4.65;1.85;;;26.00;33.60;;;;;;5059184;28;20052;-62
2021/06/01 10:08:08;;;;;;;1.65;1.55;;;26.00;31.70;;;;;;5058505;28;20072;-61
2021/06/01 10:10:36;;;;;;;1.80;1.60;;;25.90;30.70;;;;;;5056210;28;20401;-62
2021/06/01 10:13:06;;;;;;;3.25;1.65;;;25.80;30.50;;;;;;5058067;28;20139;-61
2021/06/01 10:15:34;;;;;;;3.15;2.03;;;25.70;30.40;;;;;;5055538;28;20045;-66
2021/06/01 10:18:04;;;;;;;1.60;1.50;;;25.50;30.50;;;;;;5061655;28;20120;-62
2021/06/01 10:20:34;;;;;;;2.45;1.42;;;25.40;30.70;;;;;;5061128;28;20499;-67
2021/06/01 10:23:03;;;;;;;2.08;1.60;;;25.30;30.90;;;;;;5056533;28;20048;-65
2021/06/01 10:25:31;;;;;;;1.48;1.25;;;25.30;31.40;;;;;;5038239;28;20367;-65
2021/06/01 10:28:02;;;;;;;5.47;1.88;;;25.20;31.90;;;;;;5056714;28;20513;-62
2021/06/01 10:30:32;;;;;;;1.70;1.60;;;25.30;32.40;;;;;;5060881;28;20056;-62
2021/06/01 10:33:03;;;;;;;4.00;1.40;;;25.30;32.50;;;;;;5060496;28;20121;-63
2021/06/01 10:35:34;;;;;;;1.50;1.50;;;25.40;32.70;;;;;;5056691;28;20131;-62
2021/06/01 10:50:36;;;;;;;1.63;1.52;;;25.80;33.00;;;;;;5059028;28;20125;-62
2021/06/01 10:53:26;;;;;;;2.10;1.48;;;25.90;33.20;;;;;;5056711;28;21146;-60
2021/06/01 10:56:03;;;;;;;3.20;2.00;;;26.00;33.10;;;;;;5058750;28;20052;-61
2021/06/01 10:58:55;;;;;;;1.60;1.50;;;26.10;33.10;;;;;;5057808;28;20048;-62
2021/06/01 11:04:24;;;;;;;2.30;1.00;;;26.10;32.90;;;;;;5054032;28;20379;-60
2021/06/01 11:07:14;;;;;;;2.95;1.40;;;26.10;33.00;;;;;;5056945;28;20389;-60
2021/06/01 11:09:45;;;;;;;1.33;1.23;;;26.10;33.00;;;;;;5058187;28;20143;-61
2021/06/01 11:12:38;;;;;;;3.72;1.50;;;26.10;32.70;;;;;;5053288;28;20048;-60
2021/06/01 11:15:23;;;;;;;1.77;1.45;;;26.10;32.80;;;;;;5056586;28;20048;-61
2021/06/01 11:17:50;;;;;;;1.50;1.40;;;26.10;32.30;;;;;;5061042;28;20075;-60
2021/06/01 11:20:37;;;;;;;1.10;1.00;;;26.20;32.00;;;;;;5056503;28;20115;-60
2021/06/01 11:23:16;;;;;;;4.43;1.45;;;26.20;32.10;;;;;;5057906;28;20076;-61
2021/06/01 11:35:02;;;;;;;1.38;1.20;;;26.30;30.80;;;;;;5057030;28;20036;-60
2021/06/01 11:37:36;;;;;;;2.35;1.25;;;26.40;30.90;;;;;;5060439;28;20397;-59
2021/06/01 11:43:12;;;;;;;1.05;0.95;;;26.40;30.40;;;;;;5054981;28;20588;-59
2021/06/01 11:45:42;;;;;;;2.95;1.15;;;26.50;30.30;;;;;;5060707;28;20539;-59
2021/06/01 11:51:11;;;;;;;2.33;1.02;;;26.50;30.20;;;;;;5053102;28;20040;-58
2021/06/01 11:53:59;;;;;;;1.80;1.15;;;26.50;30.20;;;;;;5055556;28;20045;-59
2021/06/01 12:05:35;;;;;;;1.90;1.25;;;26.50;30.90;;;;;;5058386;28;19952;-61
2021/06/01 12:13:54;;;;;;;4.28;1.30;;;26.60;31.00;;;;;;5059701;28;20076;-60
2021/06/01 12:19:12;;;;;;;1.60;0.88;;;26.60;30.80;;;;;;5053209;28;20067;-61
2021/06/01 12:21:47;;;;;;;3.60;1.67;;;26.60;30.70;;;;;;5052793;28;20101;-61
2021/06/01 12:24:24;;;;;;;4.82;1.27;;;26.70;30.70;;;;;;5032768;28;20052;-61
2021/06/01 12:32:30;;;;;;;3.35;1.20;;;26.80;30.20;;;;;;5061024;28;20006;-61
2021/06/01 12:43:52;;;;;;;7.47;2.20;;;26.40;27.70;;;;;;5056597;28;20142;-60
2021/06/01 12:46:32;;;;;;;4.60;1.48;;;26.30;28.00;;;;;;5061206;28;20067;-61
2021/06/01 13:19:17;;;;;;;;;;;26.60;30.20;;;;;;5061364;28;20052;-62
2021/06/01 13:20:59;;;;;;;2.10;1.15;;;26.60;29.70;;;;;;5062136;28;20135;-62
2021/06/01 13:32:10;;;;;;;2.08;1.15;;;26.80;29.70;;;;;;5056243;28;20049;-63
2021/06/01 13:40:48;;;;;;;2.35;1.35;;;26.90;30.00;;;;;;5059856;28;20139;-63
2021/06/01 13:46:23;;;;;;;5.03;1.20;;;27.00;30.00;;;;;;5056831;28;20045;-60
2021/06/01 13:49:00;;;;;;;1.17;1.17;;;27.00;29.90;;;;;;5059955;28;20041;-61
2021/06/01 13:52:11;;;;;;;4.10;1.65;;;27.10;30.00;;;;;;5054287;28;20136;-62
2021/06/01 13:57:08;;;;;;;1.48;1.40;;;27.10;29.70;;;;;;5058711;28;20179;-61
2021/06/01 13:59:43;;;;;;;1.35;1.08;;;27.10;29.60;;;;;;5058841;28;20132;-60
2021/06/01 14:22:18;;;;;;;1.25;1.15;;;27.10;30.30;;;;;;5064122;28;20106;-63
2021/06/01 14:30:40;;;;;;;7.38;1.50;;;27.10;30.70;;;;;;5060678;28;20466;-63
2021/06/01 14:36:23;;;;;;;1.35;1.00;;;27.20;30.60;;;;;;5060692;28;20044;-64
2021/06/01 15:04:22;;;;;;;1.45;1.30;;;27.20;30.30;;;;;;5062921;28;20139;-63
2021/06/01 15:09:56;;;;;;;3.53;1.55;;;27.20;30.40;;;;;;5063836;28;20481;-63
2021/06/01 15:24:41;;;;;;;2.35;1.20;;;27.30;30.90;;;;;;5065850;28;20297;-63
2021/06/01 15:29:47;;;;;;;1.70;1.20;;;27.40;31.10;;;;;;5062904;28;20401;-63
2021/06/01 15:32:19;;;;;;;2.92;1.05;;;27.40;31.10;;;;;;5061932;28;20041;-63
2021/06/01 15:49:01;;;;;;;4.63;1.33;;;27.50;31.20;;;;;;5063284;28;20536;-63
2021/06/01 15:55:07;;;;;;;2.45;1.83;;;27.60;31.40;;;;;;5042398;28;20332;-63
2021/06/01 16:11:43;;;;;;;1.25;1.15;;;27.80;31.30;;;;;;5066867;28;20127;-63
2021/06/01 16:14:22;;;;;;;4.00;1.20;;;27.80;31.30;;;;;;5067333;28;20295;-63
2021/06/01 16:22:51;;;;;;;1.65;1.48;;;27.90;31.30;;;;;;5066839;28;20083;-63
2021/06/01 16:41:40;;;;;;;3.05;1.25;;;28.10;31.80;;;;;;5067319;28;20224;-63
2021/06/01 16:42:45;;;;;;;2.43;1.10;;;28.20;32.60;;;;;;5066650;28;20565;-63
2021/06/01 17:04:43;;;;;;;1.27;0.88;;;28.50;35.00;;;;;;5065734;28;20076;-63
2021/06/01 17:13:02;;;;;;;2.53;1.38;;;28.50;34.90;;;;;;5066026;28;20063;-64
2021/06/01 17:15:30;;;;;;;3.28;1.20;;;28.50;34.90;;;;;;5063994;28;20053;-63
2021/06/01 17:18:12;;;;;;;2.15;1.23;;;28.40;34.80;;;;;;5065623;28;20131;-64
2021/06/01 17:21:26;;;;;;;1.40;1.20;;;28.40;34.70;;;;;;5065966;28;20070;-63
2021/06/01 17:23:49;;;;;;;1.98;1.38;;;28.30;34.80;;;;;;5063962;28;20052;-63
2021/06/01 17:32:32;;;;;;;2.25;1.17;;;27.90;34.90;;;;;;5064008;28;20044;-66
2021/06/01 17:34:57;;;;;;;2.03;1.80;;;27.80;35.00;;;;;;5063565;28;20040;-64
2021/06/01 17:37:26;;;;;;;1.35;1.25;;;27.80;35.10;;;;;;5063017;28;20076;-64
2021/06/01 17:39:54;;;;;;;1.42;1.15;;;27.70;35.40;;;;;;5065027;28;20076;-65
2021/06/01 17:42:28;;;;;;;2.40;1.38;;;27.70;35.50;;;;;;5064761;28;20128;-64
2021/06/01 17:45:00;;;;;;;2.85;1.35;;;27.60;36.10;;;;;;5064014;28;20224;-64
2021/06/01 17:47:50;;;;;;;1.95;1.20;;;27.70;37.80;;;;;;5065236;28;20313;-64
2021/06/01 17:50:18;;;;;;;3.00;1.35;;;27.70;38.40;;;;;;5063209;28;20068;-65
2021/06/01 17:52:49;;;;;;;4.15;1.40;;;27.60;38.50;;;;;;5064646;28;20135;-64
2021/06/01 17:55:17;;;;;;;1.10;1.10;;;27.70;37.90;;;;;;5065808;28;20044;-65